Antrim, New Hampshire
Current Conditions -  °F | °C
As of 6:52 AM on Sunday 23 Nov 2014 (Local Time) from KAFN Reporting Station
Few Clouds Few Clouds  
Wind Chill: 28°   Ceiling: Unl
Heat Index: 36°   Visibility: 10mi
Dew Point: 28°   Wind: 10mph
Humidity: 73%   Direction: 190°S
Pressure: 30.08"   Gusts: NA
Location:  43.03°N, 71.95°W
Report Text: KAFN 231152Z AUTO 19009KT 10SM FEW110 02/M02 A3008 RMK AO2 SLP200 60000 T00221022 10028 20011 53010
Loading
Personal Weather Stations






























Interactive Weather Map New forecast layout! Learn more

10-Day Weather Forecast

Advertisements
Track Severe Weather on mobile